<?xml version="1.0" encoding="UTF-8" standalone="no" ?>
<gpx xmlns="http://www.topografix.com/GPX/1/1" xmlns:xsi="http://www.w3.org/2001/XMLSchema-instance" xsi:schemaLocation="http://www.topografix.com/GPX/1/1 http://www.topografix.com/GPX/1/1/gpx.xsd" version="1.1" creator="VisuGPX - https://www.visugpx.com">
  <metadata>
    <name>Le Bois de la Folie au départ de Pouzauges</name>
  </metadata>
  <wpt lat="46.78973" lon="-0.83985">
    <ele>268</ele>
    <name><![CDATA[Parkings du Bois de la Folie]]></name>
  </wpt>
  <wpt lat="46.78888" lon="-0.84222">
    <ele>284</ele>
    <name><![CDATA[Carrefour des boucles]]></name>
  </wpt>
  <wpt lat="46.78461" lon="-0.84618">
    <ele>183</ele>
    <name><![CDATA[Rue de la Soriette]]></name>
  </wpt>
  <wpt lat="46.78114" lon="-0.8509">
    <ele>140</ele>
    <name><![CDATA[Lac de l'Espérance]]></name>
  </wpt>
  <wpt lat="46.78248" lon="-0.8578">
    <ele>157</ele>
    <name><![CDATA[Carrefour sentier]]></name>
  </wpt>
  <wpt lat="46.79207" lon="-0.84935">
    <ele>251</ele>
    <name><![CDATA[Après les moulins]]></name>
  </wpt>
  <wpt lat="46.79764" lon="-0.8307">
    <ele>194</ele>
    <name><![CDATA[Champorté]]></name>
  </wpt>
  <wpt lat="46.79896" lon="-0.82096">
    <ele>189</ele>
    <name><![CDATA[D43]]></name>
  </wpt>
  <wpt lat="46.79449" lon="-0.81852">
    <ele>196</ele>
    <name><![CDATA[L'Angerie]]></name>
  </wpt>
  <wpt lat="46.78691" lon="-0.8332">
    <ele>267</ele>
    <name><![CDATA[Dolmen du Marchais]]></name>
  </wpt>
  <wpt lat="46.78564" lon="-0.83433">
    <ele>254</ele>
    <name><![CDATA[Retour à Pouzauges]]></name>
  </wpt>
  <wpt lat="46.78648" lon="-0.83904">
    <ele>246</ele>
    <name><![CDATA[Sentier pour remonter au bois de la Folie]]></name>
  </wpt>
  <wpt lat="46.78976" lon="-0.83995">
    <ele>269</ele>
    <name><![CDATA[Parkings du Bois de la Folie]]></name>
  </wpt>
  <trk>
    <name><![CDATA[Le Bois de la Folie au départ de Pouzauges]]></name>
    <trkseg>
      <trkpt lat="46.78973" lon="-0.83985">
        <ele>268</ele>
        <time>2020-12-30T14:03:05+01:00</time>
      </trkpt>
      <trkpt lat="46.78989" lon="-0.84029">
        <ele>269</ele>
        <time>2020-12-30T14:03:10+01:00</time>
      </trkpt>
      <trkpt lat="46.79" lon="-0.84061">
        <ele>270</ele>
        <time>2020-12-30T14:03:15+01:00</time>
      </trkpt>
      <trkpt lat="46.78994" lon="-0.8407">
        <ele>271</ele>
        <time>2020-12-30T14:03:20+01:00</time>
      </trkpt>
      <trkpt lat="46.78981" lon="-0.84085">
        <ele>273</ele>
        <time>2020-12-30T14:03:25+01:00</time>
      </trkpt>
      <trkpt lat="46.78944" lon="-0.8411">
        <ele>278</ele>
        <time>2020-12-30T14:03:30+01:00</time>
      </trkpt>
      <trkpt lat="46.78934" lon="-0.84125">
        <ele>280</ele>
        <time>2020-12-30T14:03:35+01:00</time>
      </trkpt>
      <trkpt lat="46.7891" lon="-0.84174">
        <ele>283</ele>
        <time>2020-12-30T14:03:40+01:00</time>
      </trkpt>
      <trkpt lat="46.78888" lon="-0.84222">
        <ele>284</ele>
        <time>2020-12-30T14:03:45+01:00</time>
      </trkpt>
      <trkpt lat="46.78882" lon="-0.84241">
        <ele>284</ele>
        <time>2020-12-30T14:03:50+01:00</time>
      </trkpt>
      <trkpt lat="46.78859" lon="-0.84305">
        <ele>278</ele>
        <time>2020-12-30T14:03:55+01:00</time>
      </trkpt>
      <trkpt lat="46.78881" lon="-0.84333">
        <ele>277</ele>
        <time>2020-12-30T14:04:00+01:00</time>
      </trkpt>
      <trkpt lat="46.7889" lon="-0.84361">
        <ele>274</ele>
        <time>2020-12-30T14:04:05+01:00</time>
      </trkpt>
      <trkpt lat="46.78907" lon="-0.84399">
        <ele>270</ele>
        <time>2020-12-30T14:04:10+01:00</time>
      </trkpt>
      <trkpt lat="46.78925" lon="-0.84432">
        <ele>267</ele>
        <time>2020-12-30T14:04:15+01:00</time>
      </trkpt>
      <trkpt lat="46.7893" lon="-0.84445">
        <ele>264</ele>
        <time>2020-12-30T14:04:20+01:00</time>
      </trkpt>
      <trkpt lat="46.78926" lon="-0.84465">
        <ele>261</ele>
        <time>2020-12-30T14:04:25+01:00</time>
      </trkpt>
      <trkpt lat="46.78907" lon="-0.84482">
        <ele>257</ele>
        <time>2020-12-30T14:04:30+01:00</time>
      </trkpt>
      <trkpt lat="46.7888" lon="-0.84488">
        <ele>254</ele>
        <time>2020-12-30T14:04:35+01:00</time>
      </trkpt>
      <trkpt lat="46.78847" lon="-0.84498">
        <ele>249</ele>
        <time>2020-12-30T14:04:40+01:00</time>
      </trkpt>
      <trkpt lat="46.78812" lon="-0.84512">
        <ele>244</ele>
        <time>2020-12-30T14:04:45+01:00</time>
      </trkpt>
      <trkpt lat="46.78781" lon="-0.84531">
        <ele>237</ele>
        <time>2020-12-30T14:04:50+01:00</time>
      </trkpt>
      <trkpt lat="46.78749" lon="-0.8454">
        <ele>232</ele>
        <time>2020-12-30T14:04:55+01:00</time>
      </trkpt>
      <trkpt lat="46.78719" lon="-0.84545">
        <ele>226</ele>
        <time>2020-12-30T14:05:00+01:00</time>
      </trkpt>
      <trkpt lat="46.78719" lon="-0.84545">
        <ele>226</ele>
        <time>2020-12-30T14:05:05+01:00</time>
      </trkpt>
      <trkpt lat="46.78697" lon="-0.84545">
        <ele>222</ele>
        <time>2020-12-30T14:05:10+01:00</time>
      </trkpt>
      <trkpt lat="46.78672" lon="-0.8452">
        <ele>222</ele>
        <time>2020-12-30T14:05:15+01:00</time>
      </trkpt>
      <trkpt lat="46.78656" lon="-0.84513">
        <ele>219</ele>
        <time>2020-12-30T14:05:20+01:00</time>
      </trkpt>
      <trkpt lat="46.78625" lon="-0.84509">
        <ele>214</ele>
        <time>2020-12-30T14:05:25+01:00</time>
      </trkpt>
      <trkpt lat="46.78618" lon="-0.84516">
        <ele>212</ele>
        <time>2020-12-30T14:05:30+01:00</time>
      </trkpt>
      <trkpt lat="46.78628" lon="-0.84564">
        <ele>209</ele>
        <time>2020-12-30T14:05:35+01:00</time>
      </trkpt>
      <trkpt lat="46.78638" lon="-0.84598">
        <ele>207</ele>
        <time>2020-12-30T14:05:40+01:00</time>
      </trkpt>
      <trkpt lat="46.78647" lon="-0.84632">
        <ele>204</ele>
        <time>2020-12-30T14:05:45+01:00</time>
      </trkpt>
      <trkpt lat="46.78659" lon="-0.8465">
        <ele>204</ele>
        <time>2020-12-30T14:05:50+01:00</time>
      </trkpt>
      <trkpt lat="46.78656" lon="-0.84659">
        <ele>202</ele>
        <time>2020-12-30T14:05:55+01:00</time>
      </trkpt>
      <trkpt lat="46.78644" lon="-0.84652">
        <ele>202</ele>
        <time>2020-12-30T14:06:00+01:00</time>
      </trkpt>
      <trkpt lat="46.78651" lon="-0.84689">
        <ele>198</ele>
        <time>2020-12-30T14:06:05+01:00</time>
      </trkpt>
      <trkpt lat="46.78656" lon="-0.8471">
        <ele>197</ele>
        <time>2020-12-30T14:06:10+01:00</time>
      </trkpt>
      <trkpt lat="46.78643" lon="-0.84725">
        <ele>194</ele>
        <time>2020-12-30T14:06:15+01:00</time>
      </trkpt>
      <trkpt lat="46.78627" lon="-0.84739">
        <ele>192</ele>
        <time>2020-12-30T14:06:20+01:00</time>
      </trkpt>
      <trkpt lat="46.78612" lon="-0.84736">
        <ele>191</ele>
        <time>2020-12-30T14:06:25+01:00</time>
      </trkpt>
      <trkpt lat="46.78605" lon="-0.84732">
        <ele>190</ele>
        <time>2020-12-30T14:06:30+01:00</time>
      </trkpt>
      <trkpt lat="46.78587" lon="-0.84708">
        <ele>190</ele>
        <time>2020-12-30T14:06:35+01:00</time>
      </trkpt>
      <trkpt lat="46.78578" lon="-0.84691">
        <ele>190</ele>
        <time>2020-12-30T14:06:40+01:00</time>
      </trkpt>
      <trkpt lat="46.78567" lon="-0.84676">
        <ele>190</ele>
        <time>2020-12-30T14:06:45+01:00</time>
      </trkpt>
      <trkpt lat="46.78552" lon="-0.84665">
        <ele>189</ele>
        <time>2020-12-30T14:06:50+01:00</time>
      </trkpt>
      <trkpt lat="46.78534" lon="-0.84661">
        <ele>188</ele>
        <time>2020-12-30T14:06:55+01:00</time>
      </trkpt>
      <trkpt lat="46.78514" lon="-0.8466">
        <ele>187</ele>
        <time>2020-12-30T14:07:00+01:00</time>
      </trkpt>
      <trkpt lat="46.78505" lon="-0.84655">
        <ele>186</ele>
        <time>2020-12-30T14:07:05+01:00</time>
      </trkpt>
      <trkpt lat="46.78489" lon="-0.84642">
        <ele>185</ele>
        <time>2020-12-30T14:07:10+01:00</time>
      </trkpt>
      <trkpt lat="46.78474" lon="-0.84631">
        <ele>184</ele>
        <time>2020-12-30T14:07:15+01:00</time>
      </trkpt>
      <trkpt lat="46.78461" lon="-0.84618">
        <ele>183</ele>
        <time>2020-12-30T14:07:20+01:00</time>
      </trkpt>
      <trkpt lat="46.78468" lon="-0.84594">
        <ele>185</ele>
        <time>2020-12-30T14:07:25+01:00</time>
      </trkpt>
      <trkpt lat="46.78447" lon="-0.84577">
        <ele>184</ele>
        <time>2020-12-30T14:07:30+01:00</time>
      </trkpt>
      <trkpt lat="46.78428" lon="-0.84557">
        <ele>183</ele>
        <time>2020-12-30T14:07:35+01:00</time>
      </trkpt>
      <trkpt lat="46.78405" lon="-0.8452">
        <ele>184</ele>
        <time>2020-12-30T14:07:40+01:00</time>
      </trkpt>
      <trkpt lat="46.78387" lon="-0.84485">
        <ele>185</ele>
        <time>2020-12-30T14:07:45+01:00</time>
      </trkpt>
      <trkpt lat="46.78364" lon="-0.84423">
        <ele>185</ele>
        <time>2020-12-30T14:07:50+01:00</time>
      </trkpt>
      <trkpt lat="46.78358" lon="-0.84412">
        <ele>184</ele>
        <time>2020-12-30T14:07:55+01:00</time>
      </trkpt>
      <trkpt lat="46.78355" lon="-0.84403">
        <ele>184</ele>
        <time>2020-12-30T14:08:00+01:00</time>
      </trkpt>
      <trkpt lat="46.78365" lon="-0.84374">
        <ele>188</ele>
        <time>2020-12-30T14:08:05+01:00</time>
      </trkpt>
      <trkpt lat="46.78345" lon="-0.84326">
        <ele>189</ele>
        <time>2020-12-30T14:08:10+01:00</time>
      </trkpt>
      <trkpt lat="46.78354" lon="-0.84304">
        <ele>192</ele>
        <time>2020-12-30T14:08:15+01:00</time>
      </trkpt>
      <trkpt lat="46.78347" lon="-0.84271">
        <ele>194</ele>
        <time>2020-12-30T14:08:20+01:00</time>
      </trkpt>
      <trkpt lat="46.78331" lon="-0.84236">
        <ele>195</ele>
        <time>2020-12-30T14:08:25+01:00</time>
      </trkpt>
      <trkpt lat="46.78328" lon="-0.84195">
        <ele>198</ele>
        <time>2020-12-30T14:08:30+01:00</time>
      </trkpt>
      <trkpt lat="46.78326" lon="-0.84177">
        <ele>199</ele>
        <time>2020-12-30T14:08:35+01:00</time>
      </trkpt>
      <trkpt lat="46.7832" lon="-0.84158">
        <ele>200</ele>
        <time>2020-12-30T14:08:40+01:00</time>
      </trkpt>
      <trkpt lat="46.78314" lon="-0.84123">
        <ele>202</ele>
        <time>2020-12-30T14:08:45+01:00</time>
      </trkpt>
      <trkpt lat="46.78292" lon="-0.84097">
        <ele>201</ele>
        <time>2020-12-30T14:08:50+01:00</time>
      </trkpt>
      <trkpt lat="46.78286" lon="-0.84095">
        <ele>201</ele>
        <time>2020-12-30T14:08:55+01:00</time>
      </trkpt>
      <trkpt lat="46.78257" lon="-0.84115">
        <ele>196</ele>
        <time>2020-12-30T14:09:00+01:00</time>
      </trkpt>
      <trkpt lat="46.78231" lon="-0.84144">
        <ele>194</ele>
        <time>2020-12-30T14:09:05+01:00</time>
      </trkpt>
      <trkpt lat="46.78231" lon="-0.84236">
        <ele>190</ele>
        <time>2020-12-30T14:09:10+01:00</time>
      </trkpt>
      <trkpt lat="46.78256" lon="-0.84281">
        <ele>187</ele>
        <time>2020-12-30T14:09:15+01:00</time>
      </trkpt>
      <trkpt lat="46.78258" lon="-0.84331">
        <ele>187</ele>
        <time>2020-12-30T14:09:20+01:00</time>
      </trkpt>
      <trkpt lat="46.78281" lon="-0.84374">
        <ele>185</ele>
        <time>2020-12-30T14:09:25+01:00</time>
      </trkpt>
      <trkpt lat="46.78301" lon="-0.84397">
        <ele>182</ele>
        <time>2020-12-30T14:09:30+01:00</time>
      </trkpt>
      <trkpt lat="46.78308" lon="-0.84436">
        <ele>180</ele>
        <time>2020-12-30T14:09:35+01:00</time>
      </trkpt>
      <trkpt lat="46.78315" lon="-0.84512">
        <ele>177</ele>
        <time>2020-12-30T14:09:40+01:00</time>
      </trkpt>
      <trkpt lat="46.7832" lon="-0.84572">
        <ele>174</ele>
        <time>2020-12-30T14:09:45+01:00</time>
      </trkpt>
      <trkpt lat="46.78325" lon="-0.84618">
        <ele>173</ele>
        <time>2020-12-30T14:09:50+01:00</time>
      </trkpt>
      <trkpt lat="46.78339" lon="-0.84643">
        <ele>171</ele>
        <time>2020-12-30T14:09:55+01:00</time>
      </trkpt>
      <trkpt lat="46.78356" lon="-0.84698">
        <ele>170</ele>
        <time>2020-12-30T14:10:00+01:00</time>
      </trkpt>
      <trkpt lat="46.78367" lon="-0.84745">
        <ele>168</ele>
        <time>2020-12-30T14:10:05+01:00</time>
      </trkpt>
      <trkpt lat="46.78374" lon="-0.84786">
        <ele>165</ele>
        <time>2020-12-30T14:10:10+01:00</time>
      </trkpt>
      <trkpt lat="46.78384" lon="-0.84824">
        <ele>161</ele>
        <time>2020-12-30T14:10:15+01:00</time>
      </trkpt>
      <trkpt lat="46.78389" lon="-0.84859">
        <ele>159</ele>
        <time>2020-12-30T14:10:20+01:00</time>
      </trkpt>
      <trkpt lat="46.78374" lon="-0.84871">
        <ele>158</ele>
        <time>2020-12-30T14:10:25+01:00</time>
      </trkpt>
      <trkpt lat="46.78337" lon="-0.84949">
        <ele>155</ele>
        <time>2020-12-30T14:10:30+01:00</time>
      </trkpt>
      <trkpt lat="46.78313" lon="-0.85">
        <ele>152</ele>
        <time>2020-12-30T14:10:35+01:00</time>
      </trkpt>
      <trkpt lat="46.78291" lon="-0.85022">
        <ele>150</ele>
        <time>2020-12-30T14:10:40+01:00</time>
      </trkpt>
      <trkpt lat="46.7821" lon="-0.85058">
        <ele>144</ele>
        <time>2020-12-30T14:10:45+01:00</time>
      </trkpt>
      <trkpt lat="46.78162" lon="-0.85081">
        <ele>140</ele>
        <time>2020-12-30T14:10:50+01:00</time>
      </trkpt>
      <trkpt lat="46.78114" lon="-0.8509">
        <ele>140</ele>
        <time>2020-12-30T14:10:55+01:00</time>
      </trkpt>
      <trkpt lat="46.78123" lon="-0.85125">
        <ele>140</ele>
        <time>2020-12-30T14:11:00+01:00</time>
      </trkpt>
      <trkpt lat="46.78108" lon="-0.85137">
        <ele>140</ele>
        <time>2020-12-30T14:11:05+01:00</time>
      </trkpt>
      <trkpt lat="46.78085" lon="-0.85137">
        <ele>140</ele>
        <time>2020-12-30T14:11:10+01:00</time>
      </trkpt>
      <trkpt lat="46.78059" lon="-0.85156">
        <ele>140</ele>
        <time>2020-12-30T14:11:15+01:00</time>
      </trkpt>
      <trkpt lat="46.7803" lon="-0.8518">
        <ele>139</ele>
        <time>2020-12-30T14:11:20+01:00</time>
      </trkpt>
      <trkpt lat="46.78011" lon="-0.8521">
        <ele>139</ele>
        <time>2020-12-30T14:11:25+01:00</time>
      </trkpt>
      <trkpt lat="46.77989" lon="-0.85226">
        <ele>139</ele>
        <time>2020-12-30T14:11:30+01:00</time>
      </trkpt>
      <trkpt lat="46.77955" lon="-0.85238">
        <ele>138</ele>
        <time>2020-12-30T14:11:35+01:00</time>
      </trkpt>
      <trkpt lat="46.77932" lon="-0.8524">
        <ele>138</ele>
        <time>2020-12-30T14:11:40+01:00</time>
      </trkpt>
      <trkpt lat="46.7791" lon="-0.85247">
        <ele>138</ele>
        <time>2020-12-30T14:11:45+01:00</time>
      </trkpt>
      <trkpt lat="46.7787" lon="-0.85262">
        <ele>140</ele>
        <time>2020-12-30T14:11:50+01:00</time>
      </trkpt>
      <trkpt lat="46.77854" lon="-0.85271">
        <ele>140</ele>
        <time>2020-12-30T14:11:55+01:00</time>
      </trkpt>
      <trkpt lat="46.7784" lon="-0.85284">
        <ele>140</ele>
        <time>2020-12-30T14:12:00+01:00</time>
      </trkpt>
      <trkpt lat="46.77817" lon="-0.85323">
        <ele>138</ele>
        <time>2020-12-30T14:12:05+01:00</time>
      </trkpt>
      <trkpt lat="46.77798" lon="-0.85365">
        <ele>135</ele>
        <time>2020-12-30T14:12:10+01:00</time>
      </trkpt>
      <trkpt lat="46.77826" lon="-0.85412">
        <ele>132</ele>
        <time>2020-12-30T14:12:15+01:00</time>
      </trkpt>
      <trkpt lat="46.77857" lon="-0.85477">
        <ele>131</ele>
        <time>2020-12-30T14:12:20+01:00</time>
      </trkpt>
      <trkpt lat="46.7788" lon="-0.85511">
        <ele>132</ele>
        <time>2020-12-30T14:12:25+01:00</time>
      </trkpt>
      <trkpt lat="46.77899" lon="-0.8555">
        <ele>134</ele>
        <time>2020-12-30T14:12:30+01:00</time>
      </trkpt>
      <trkpt lat="46.77911" lon="-0.85535">
        <ele>135</ele>
        <time>2020-12-30T14:12:35+01:00</time>
      </trkpt>
      <trkpt lat="46.77922" lon="-0.85519">
        <ele>135</ele>
        <time>2020-12-30T14:12:40+01:00</time>
      </trkpt>
      <trkpt lat="46.77956" lon="-0.85501">
        <ele>135</ele>
        <time>2020-12-30T14:12:45+01:00</time>
      </trkpt>
      <trkpt lat="46.77983" lon="-0.85489">
        <ele>136</ele>
        <time>2020-12-30T14:12:50+01:00</time>
      </trkpt>
      <trkpt lat="46.78014" lon="-0.8544">
        <ele>135</ele>
        <time>2020-12-30T14:12:55+01:00</time>
      </trkpt>
      <trkpt lat="46.78029" lon="-0.85415">
        <ele>136</ele>
        <time>2020-12-30T14:13:00+01:00</time>
      </trkpt>
      <trkpt lat="46.78058" lon="-0.85396">
        <ele>139</ele>
        <time>2020-12-30T14:13:05+01:00</time>
      </trkpt>
      <trkpt lat="46.78077" lon="-0.85389">
        <ele>141</ele>
        <time>2020-12-30T14:13:10+01:00</time>
      </trkpt>
      <trkpt lat="46.78089" lon="-0.85374">
        <ele>142</ele>
        <time>2020-12-30T14:13:15+01:00</time>
      </trkpt>
      <trkpt lat="46.78117" lon="-0.85337">
        <ele>144</ele>
        <time>2020-12-30T14:13:20+01:00</time>
      </trkpt>
      <trkpt lat="46.78126" lon="-0.85322">
        <ele>144</ele>
        <time>2020-12-30T14:13:25+01:00</time>
      </trkpt>
      <trkpt lat="46.78121" lon="-0.85288">
        <ele>142</ele>
        <time>2020-12-30T14:13:30+01:00</time>
      </trkpt>
      <trkpt lat="46.78117" lon="-0.85251">
        <ele>140</ele>
        <time>2020-12-30T14:13:35+01:00</time>
      </trkpt>
      <trkpt lat="46.78122" lon="-0.85228">
        <ele>140</ele>
        <time>2020-12-30T14:13:40+01:00</time>
      </trkpt>
      <trkpt lat="46.78121" lon="-0.85204">
        <ele>140</ele>
        <time>2020-12-30T14:13:45+01:00</time>
      </trkpt>
      <trkpt lat="46.78122" lon="-0.85182">
        <ele>139</ele>
        <time>2020-12-30T14:13:50+01:00</time>
      </trkpt>
      <trkpt lat="46.78115" lon="-0.85155">
        <ele>139</ele>
        <time>2020-12-30T14:13:55+01:00</time>
      </trkpt>
      <trkpt lat="46.7813" lon="-0.85148">
        <ele>139</ele>
        <time>2020-12-30T14:14:00+01:00</time>
      </trkpt>
      <trkpt lat="46.78145" lon="-0.85228">
        <ele>140</ele>
        <time>2020-12-30T14:14:05+01:00</time>
      </trkpt>
      <trkpt lat="46.78167" lon="-0.8529">
        <ele>143</ele>
        <time>2020-12-30T14:14:10+01:00</time>
      </trkpt>
      <trkpt lat="46.78183" lon="-0.85359">
        <ele>148</ele>
        <time>2020-12-30T14:14:15+01:00</time>
      </trkpt>
      <trkpt lat="46.78214" lon="-0.85472">
        <ele>153</ele>
        <time>2020-12-30T14:14:20+01:00</time>
      </trkpt>
      <trkpt lat="46.78227" lon="-0.8556">
        <ele>156</ele>
        <time>2020-12-30T14:14:25+01:00</time>
      </trkpt>
      <trkpt lat="46.78234" lon="-0.85633">
        <ele>157</ele>
        <time>2020-12-30T14:14:30+01:00</time>
      </trkpt>
      <trkpt lat="46.78245" lon="-0.85755">
        <ele>157</ele>
        <time>2020-12-30T14:14:35+01:00</time>
      </trkpt>
      <trkpt lat="46.78248" lon="-0.8578">
        <ele>157</ele>
        <time>2020-12-30T14:14:40+01:00</time>
      </trkpt>
      <trkpt lat="46.78256" lon="-0.85782">
        <ele>158</ele>
        <time>2020-12-30T14:14:45+01:00</time>
      </trkpt>
      <trkpt lat="46.78253" lon="-0.85808">
        <ele>157</ele>
        <time>2020-12-30T14:14:50+01:00</time>
      </trkpt>
      <trkpt lat="46.78253" lon="-0.85837">
        <ele>157</ele>
        <time>2020-12-30T14:14:55+01:00</time>
      </trkpt>
      <trkpt lat="46.78267" lon="-0.85853">
        <ele>158</ele>
        <time>2020-12-30T14:15:00+01:00</time>
      </trkpt>
      <trkpt lat="46.78302" lon="-0.85883">
        <ele>159</ele>
        <time>2020-12-30T14:15:05+01:00</time>
      </trkpt>
      <trkpt lat="46.78314" lon="-0.85902">
        <ele>159</ele>
        <time>2020-12-30T14:15:10+01:00</time>
      </trkpt>
      <trkpt lat="46.78323" lon="-0.85944">
        <ele>158</ele>
        <time>2020-12-30T14:15:15+01:00</time>
      </trkpt>
      <trkpt lat="46.78329" lon="-0.85954">
        <ele>158</ele>
        <time>2020-12-30T14:15:20+01:00</time>
      </trkpt>
      <trkpt lat="46.78345" lon="-0.85937">
        <ele>159</ele>
        <time>2020-12-30T14:15:25+01:00</time>
      </trkpt>
      <trkpt lat="46.78442" lon="-0.85824">
        <ele>175</ele>
        <time>2020-12-30T14:15:30+01:00</time>
      </trkpt>
      <trkpt lat="46.78501" lon="-0.85957">
        <ele>171</ele>
        <time>2020-12-30T14:15:35+01:00</time>
      </trkpt>
      <trkpt lat="46.78549" lon="-0.86088">
        <ele>168</ele>
        <time>2020-12-30T14:15:40+01:00</time>
      </trkpt>
      <trkpt lat="46.78573" lon="-0.8609">
        <ele>171</ele>
        <time>2020-12-30T14:15:45+01:00</time>
      </trkpt>
      <trkpt lat="46.7859" lon="-0.86092">
        <ele>173</ele>
        <time>2020-12-30T14:15:50+01:00</time>
      </trkpt>
      <trkpt lat="46.78634" lon="-0.86172">
        <ele>170</ele>
        <time>2020-12-30T14:15:55+01:00</time>
      </trkpt>
      <trkpt lat="46.78674" lon="-0.8616">
        <ele>174</ele>
        <time>2020-12-30T14:16:00+01:00</time>
      </trkpt>
      <trkpt lat="46.78725" lon="-0.86112">
        <ele>180</ele>
        <time>2020-12-30T14:16:05+01:00</time>
      </trkpt>
      <trkpt lat="46.78758" lon="-0.86075">
        <ele>184</ele>
        <time>2020-12-30T14:16:10+01:00</time>
      </trkpt>
      <trkpt lat="46.78802" lon="-0.86045">
        <ele>187</ele>
        <time>2020-12-30T14:16:15+01:00</time>
      </trkpt>
      <trkpt lat="46.7884" lon="-0.8598">
        <ele>192</ele>
        <time>2020-12-30T14:16:20+01:00</time>
      </trkpt>
      <trkpt lat="46.7887" lon="-0.85927">
        <ele>196</ele>
        <time>2020-12-30T14:16:25+01:00</time>
      </trkpt>
      <trkpt lat="46.78893" lon="-0.85863">
        <ele>200</ele>
        <time>2020-12-30T14:16:30+01:00</time>
      </trkpt>
      <trkpt lat="46.78907" lon="-0.85803">
        <ele>202</ele>
        <time>2020-12-30T14:16:35+01:00</time>
      </trkpt>
      <trkpt lat="46.7894" lon="-0.85717">
        <ele>202</ele>
        <time>2020-12-30T14:16:40+01:00</time>
      </trkpt>
      <trkpt lat="46.78971" lon="-0.85655">
        <ele>200</ele>
        <time>2020-12-30T14:16:45+01:00</time>
      </trkpt>
      <trkpt lat="46.79004" lon="-0.85586">
        <ele>201</ele>
        <time>2020-12-30T14:16:50+01:00</time>
      </trkpt>
      <trkpt lat="46.79054" lon="-0.85498">
        <ele>206</ele>
        <time>2020-12-30T14:16:55+01:00</time>
      </trkpt>
      <trkpt lat="46.79092" lon="-0.8544">
        <ele>211</ele>
        <time>2020-12-30T14:17:00+01:00</time>
      </trkpt>
      <trkpt lat="46.79119" lon="-0.85404">
        <ele>215</ele>
        <time>2020-12-30T14:17:05+01:00</time>
      </trkpt>
      <trkpt lat="46.79164" lon="-0.85345">
        <ele>221</ele>
        <time>2020-12-30T14:17:10+01:00</time>
      </trkpt>
      <trkpt lat="46.79175" lon="-0.85311">
        <ele>225</ele>
        <time>2020-12-30T14:17:15+01:00</time>
      </trkpt>
      <trkpt lat="46.79179" lon="-0.85281">
        <ele>227</ele>
        <time>2020-12-30T14:17:20+01:00</time>
      </trkpt>
      <trkpt lat="46.792" lon="-0.85232">
        <ele>233</ele>
        <time>2020-12-30T14:17:25+01:00</time>
      </trkpt>
      <trkpt lat="46.79198" lon="-0.85183">
        <ele>236</ele>
        <time>2020-12-30T14:17:30+01:00</time>
      </trkpt>
      <trkpt lat="46.79195" lon="-0.85166">
        <ele>236</ele>
        <time>2020-12-30T14:17:35+01:00</time>
      </trkpt>
      <trkpt lat="46.79193" lon="-0.85155">
        <ele>237</ele>
        <time>2020-12-30T14:17:40+01:00</time>
      </trkpt>
      <trkpt lat="46.792" lon="-0.8505">
        <ele>245</ele>
        <time>2020-12-30T14:17:45+01:00</time>
      </trkpt>
      <trkpt lat="46.79208" lon="-0.84983">
        <ele>250</ele>
        <time>2020-12-30T14:17:50+01:00</time>
      </trkpt>
      <trkpt lat="46.79207" lon="-0.84935">
        <ele>251</ele>
        <time>2020-12-30T14:17:55+01:00</time>
      </trkpt>
      <trkpt lat="46.79184" lon="-0.84922">
        <ele>250</ele>
        <time>2020-12-30T14:18:00+01:00</time>
      </trkpt>
      <trkpt lat="46.79099" lon="-0.84832">
        <ele>239</ele>
        <time>2020-12-30T14:18:05+01:00</time>
      </trkpt>
      <trkpt lat="46.79053" lon="-0.84773">
        <ele>235</ele>
        <time>2020-12-30T14:18:10+01:00</time>
      </trkpt>
      <trkpt lat="46.79008" lon="-0.84727">
        <ele>232</ele>
        <time>2020-12-30T14:18:15+01:00</time>
      </trkpt>
      <trkpt lat="46.78966" lon="-0.84686">
        <ele>229</ele>
        <time>2020-12-30T14:18:20+01:00</time>
      </trkpt>
      <trkpt lat="46.78921" lon="-0.84654">
        <ele>227</ele>
        <time>2020-12-30T14:18:25+01:00</time>
      </trkpt>
      <trkpt lat="46.78922" lon="-0.84626">
        <ele>233</ele>
        <time>2020-12-30T14:18:30+01:00</time>
      </trkpt>
      <trkpt lat="46.78924" lon="-0.84598">
        <ele>239</ele>
        <time>2020-12-30T14:18:35+01:00</time>
      </trkpt>
      <trkpt lat="46.78942" lon="-0.84578">
        <ele>245</ele>
        <time>2020-12-30T14:18:40+01:00</time>
      </trkpt>
      <trkpt lat="46.7896" lon="-0.8459">
        <ele>245</ele>
        <time>2020-12-30T14:18:45+01:00</time>
      </trkpt>
      <trkpt lat="46.78976" lon="-0.84596">
        <ele>245</ele>
        <time>2020-12-30T14:18:50+01:00</time>
      </trkpt>
      <trkpt lat="46.78991" lon="-0.84577">
        <ele>250</ele>
        <time>2020-12-30T14:18:55+01:00</time>
      </trkpt>
      <trkpt lat="46.78997" lon="-0.84558">
        <ele>253</ele>
        <time>2020-12-30T14:19:00+01:00</time>
      </trkpt>
      <trkpt lat="46.78998" lon="-0.84543">
        <ele>255</ele>
        <time>2020-12-30T14:19:05+01:00</time>
      </trkpt>
      <trkpt lat="46.79" lon="-0.8447">
        <ele>264</ele>
        <time>2020-12-30T14:19:10+01:00</time>
      </trkpt>
      <trkpt lat="46.79007" lon="-0.84447">
        <ele>265</ele>
        <time>2020-12-30T14:19:15+01:00</time>
      </trkpt>
      <trkpt lat="46.79017" lon="-0.84427">
        <ele>267</ele>
        <time>2020-12-30T14:19:20+01:00</time>
      </trkpt>
      <trkpt lat="46.79022" lon="-0.8441">
        <ele>267</ele>
        <time>2020-12-30T14:19:25+01:00</time>
      </trkpt>
      <trkpt lat="46.78999" lon="-0.84374">
        <ele>270</ele>
        <time>2020-12-30T14:19:30+01:00</time>
      </trkpt>
      <trkpt lat="46.78974" lon="-0.84339">
        <ele>274</ele>
        <time>2020-12-30T14:19:35+01:00</time>
      </trkpt>
      <trkpt lat="46.78948" lon="-0.84309">
        <ele>279</ele>
        <time>2020-12-30T14:19:40+01:00</time>
      </trkpt>
      <trkpt lat="46.78915" lon="-0.84263">
        <ele>286</ele>
        <time>2020-12-30T14:19:45+01:00</time>
      </trkpt>
      <trkpt lat="46.7889" lon="-0.84223">
        <ele>284</ele>
        <time>2020-12-30T14:19:50+01:00</time>
      </trkpt>
      <trkpt lat="46.7891" lon="-0.84175">
        <ele>283</ele>
        <time>2020-12-30T14:19:55+01:00</time>
      </trkpt>
      <trkpt lat="46.78935" lon="-0.84124">
        <ele>280</ele>
        <time>2020-12-30T14:20:00+01:00</time>
      </trkpt>
      <trkpt lat="46.78945" lon="-0.8411">
        <ele>278</ele>
        <time>2020-12-30T14:20:05+01:00</time>
      </trkpt>
      <trkpt lat="46.78994" lon="-0.84072">
        <ele>271</ele>
        <time>2020-12-30T14:20:10+01:00</time>
      </trkpt>
      <trkpt lat="46.79002" lon="-0.84067">
        <ele>270</ele>
        <time>2020-12-30T14:20:15+01:00</time>
      </trkpt>
      <trkpt lat="46.78999" lon="-0.84021">
        <ele>268</ele>
        <time>2020-12-30T14:20:20+01:00</time>
      </trkpt>
      <trkpt lat="46.79003" lon="-0.83977">
        <ele>267</ele>
        <time>2020-12-30T14:20:25+01:00</time>
      </trkpt>
      <trkpt lat="46.7902" lon="-0.83862">
        <ele>268</ele>
        <time>2020-12-30T14:20:30+01:00</time>
      </trkpt>
      <trkpt lat="46.79054" lon="-0.83878">
        <ele>269</ele>
        <time>2020-12-30T14:20:35+01:00</time>
      </trkpt>
      <trkpt lat="46.79087" lon="-0.83917">
        <ele>270</ele>
        <time>2020-12-30T14:20:40+01:00</time>
      </trkpt>
      <trkpt lat="46.79126" lon="-0.83953">
        <ele>268</ele>
        <time>2020-12-30T14:20:45+01:00</time>
      </trkpt>
      <trkpt lat="46.79189" lon="-0.84">
        <ele>260</ele>
        <time>2020-12-30T14:20:50+01:00</time>
      </trkpt>
      <trkpt lat="46.79225" lon="-0.83968">
        <ele>254</ele>
        <time>2020-12-30T14:20:55+01:00</time>
      </trkpt>
      <trkpt lat="46.79258" lon="-0.83936">
        <ele>247</ele>
        <time>2020-12-30T14:21:00+01:00</time>
      </trkpt>
      <trkpt lat="46.79304" lon="-0.83857">
        <ele>240</ele>
        <time>2020-12-30T14:21:05+01:00</time>
      </trkpt>
      <trkpt lat="46.79343" lon="-0.83782">
        <ele>231</ele>
        <time>2020-12-30T14:21:10+01:00</time>
      </trkpt>
      <trkpt lat="46.79403" lon="-0.83615">
        <ele>220</ele>
        <time>2020-12-30T14:21:15+01:00</time>
      </trkpt>
      <trkpt lat="46.79419" lon="-0.83595">
        <ele>218</ele>
        <time>2020-12-30T14:21:20+01:00</time>
      </trkpt>
      <trkpt lat="46.79502" lon="-0.83571">
        <ele>212</ele>
        <time>2020-12-30T14:21:25+01:00</time>
      </trkpt>
      <trkpt lat="46.79625" lon="-0.8348">
        <ele>207</ele>
        <time>2020-12-30T14:21:30+01:00</time>
      </trkpt>
      <trkpt lat="46.79667" lon="-0.83464">
        <ele>207</ele>
        <time>2020-12-30T14:21:35+01:00</time>
      </trkpt>
      <trkpt lat="46.79718" lon="-0.83469">
        <ele>210</ele>
        <time>2020-12-30T14:21:40+01:00</time>
      </trkpt>
      <trkpt lat="46.79709" lon="-0.83375">
        <ele>203</ele>
        <time>2020-12-30T14:21:45+01:00</time>
      </trkpt>
      <trkpt lat="46.79709" lon="-0.83304">
        <ele>200</ele>
        <time>2020-12-30T14:21:50+01:00</time>
      </trkpt>
      <trkpt lat="46.79715" lon="-0.83244">
        <ele>198</ele>
        <time>2020-12-30T14:21:55+01:00</time>
      </trkpt>
      <trkpt lat="46.79728" lon="-0.8317">
        <ele>196</ele>
        <time>2020-12-30T14:22:00+01:00</time>
      </trkpt>
      <trkpt lat="46.79754" lon="-0.83131">
        <ele>195</ele>
        <time>2020-12-30T14:22:05+01:00</time>
      </trkpt>
      <trkpt lat="46.79764" lon="-0.83104">
        <ele>195</ele>
        <time>2020-12-30T14:22:10+01:00</time>
      </trkpt>
      <trkpt lat="46.79761" lon="-0.83087">
        <ele>194</ele>
        <time>2020-12-30T14:22:15+01:00</time>
      </trkpt>
      <trkpt lat="46.79764" lon="-0.8307">
        <ele>194</ele>
        <time>2020-12-30T14:22:20+01:00</time>
      </trkpt>
      <trkpt lat="46.79796" lon="-0.83084">
        <ele>196</ele>
        <time>2020-12-30T14:22:25+01:00</time>
      </trkpt>
      <trkpt lat="46.79816" lon="-0.8305">
        <ele>195</ele>
        <time>2020-12-30T14:22:30+01:00</time>
      </trkpt>
      <trkpt lat="46.79832" lon="-0.83029">
        <ele>195</ele>
        <time>2020-12-30T14:22:35+01:00</time>
      </trkpt>
      <trkpt lat="46.79881" lon="-0.82997">
        <ele>197</ele>
        <time>2020-12-30T14:22:40+01:00</time>
      </trkpt>
      <trkpt lat="46.79909" lon="-0.82961">
        <ele>199</ele>
        <time>2020-12-30T14:22:45+01:00</time>
      </trkpt>
      <trkpt lat="46.79964" lon="-0.82926">
        <ele>204</ele>
        <time>2020-12-30T14:22:50+01:00</time>
      </trkpt>
      <trkpt lat="46.7999" lon="-0.82903">
        <ele>205</ele>
        <time>2020-12-30T14:22:55+01:00</time>
      </trkpt>
      <trkpt lat="46.8004" lon="-0.82875">
        <ele>204</ele>
        <time>2020-12-30T14:23:00+01:00</time>
      </trkpt>
      <trkpt lat="46.80112" lon="-0.82825">
        <ele>200</ele>
        <time>2020-12-30T14:23:05+01:00</time>
      </trkpt>
      <trkpt lat="46.80187" lon="-0.82774">
        <ele>199</ele>
        <time>2020-12-30T14:23:10+01:00</time>
      </trkpt>
      <trkpt lat="46.80253" lon="-0.82729">
        <ele>200</ele>
        <time>2020-12-30T14:23:15+01:00</time>
      </trkpt>
      <trkpt lat="46.80297" lon="-0.827">
        <ele>201</ele>
        <time>2020-12-30T14:23:20+01:00</time>
      </trkpt>
      <trkpt lat="46.80341" lon="-0.82669">
        <ele>201</ele>
        <time>2020-12-30T14:23:25+01:00</time>
      </trkpt>
      <trkpt lat="46.8039" lon="-0.82641">
        <ele>203</ele>
        <time>2020-12-30T14:23:30+01:00</time>
      </trkpt>
      <trkpt lat="46.80429" lon="-0.82607">
        <ele>204</ele>
        <time>2020-12-30T14:23:35+01:00</time>
      </trkpt>
      <trkpt lat="46.8035" lon="-0.82345">
        <ele>205</ele>
        <time>2020-12-30T14:23:40+01:00</time>
      </trkpt>
      <trkpt lat="46.80328" lon="-0.82371">
        <ele>205</ele>
        <time>2020-12-30T14:23:45+01:00</time>
      </trkpt>
      <trkpt lat="46.803" lon="-0.82395">
        <ele>204</ele>
        <time>2020-12-30T14:23:50+01:00</time>
      </trkpt>
      <trkpt lat="46.8016" lon="-0.82478">
        <ele>203</ele>
        <time>2020-12-30T14:23:55+01:00</time>
      </trkpt>
      <trkpt lat="46.80152" lon="-0.82482">
        <ele>203</ele>
        <time>2020-12-30T14:24:00+01:00</time>
      </trkpt>
      <trkpt lat="46.80134" lon="-0.82508">
        <ele>202</ele>
        <time>2020-12-30T14:24:05+01:00</time>
      </trkpt>
      <trkpt lat="46.80113" lon="-0.82509">
        <ele>202</ele>
        <time>2020-12-30T14:24:10+01:00</time>
      </trkpt>
      <trkpt lat="46.80097" lon="-0.82491">
        <ele>203</ele>
        <time>2020-12-30T14:24:15+01:00</time>
      </trkpt>
      <trkpt lat="46.8009" lon="-0.82482">
        <ele>204</ele>
        <time>2020-12-30T14:24:20+01:00</time>
      </trkpt>
      <trkpt lat="46.80049" lon="-0.82474">
        <ele>205</ele>
        <time>2020-12-30T14:24:25+01:00</time>
      </trkpt>
      <trkpt lat="46.80033" lon="-0.82476">
        <ele>205</ele>
        <time>2020-12-30T14:24:30+01:00</time>
      </trkpt>
      <trkpt lat="46.8001" lon="-0.82487">
        <ele>205</ele>
        <time>2020-12-30T14:24:35+01:00</time>
      </trkpt>
      <trkpt lat="46.79996" lon="-0.82486">
        <ele>205</ele>
        <time>2020-12-30T14:24:40+01:00</time>
      </trkpt>
      <trkpt lat="46.79962" lon="-0.82374">
        <ele>203</ele>
        <time>2020-12-30T14:24:45+01:00</time>
      </trkpt>
      <trkpt lat="46.79946" lon="-0.82325">
        <ele>201</ele>
        <time>2020-12-30T14:24:50+01:00</time>
      </trkpt>
      <trkpt lat="46.79927" lon="-0.82246">
        <ele>196</ele>
        <time>2020-12-30T14:24:55+01:00</time>
      </trkpt>
      <trkpt lat="46.79923" lon="-0.82152">
        <ele>193</ele>
        <time>2020-12-30T14:25:00+01:00</time>
      </trkpt>
      <trkpt lat="46.79896" lon="-0.82096">
        <ele>189</ele>
        <time>2020-12-30T14:25:05+01:00</time>
      </trkpt>
      <trkpt lat="46.79826" lon="-0.82156">
        <ele>188</ele>
        <time>2020-12-30T14:25:10+01:00</time>
      </trkpt>
      <trkpt lat="46.79786" lon="-0.82197">
        <ele>188</ele>
        <time>2020-12-30T14:25:15+01:00</time>
      </trkpt>
      <trkpt lat="46.79752" lon="-0.82233">
        <ele>188</ele>
        <time>2020-12-30T14:25:20+01:00</time>
      </trkpt>
      <trkpt lat="46.79688" lon="-0.82306">
        <ele>188</ele>
        <time>2020-12-30T14:25:25+01:00</time>
      </trkpt>
      <trkpt lat="46.79658" lon="-0.82148">
        <ele>189</ele>
        <time>2020-12-30T14:25:30+01:00</time>
      </trkpt>
      <trkpt lat="46.79631" lon="-0.82045">
        <ele>184</ele>
        <time>2020-12-30T14:25:35+01:00</time>
      </trkpt>
      <trkpt lat="46.79552" lon="-0.81942">
        <ele>185</ele>
        <time>2020-12-30T14:25:40+01:00</time>
      </trkpt>
      <trkpt lat="46.79493" lon="-0.81881">
        <ele>190</ele>
        <time>2020-12-30T14:25:45+01:00</time>
      </trkpt>
      <trkpt lat="46.79449" lon="-0.81852">
        <ele>196</ele>
        <time>2020-12-30T14:25:50+01:00</time>
      </trkpt>
      <trkpt lat="46.79422" lon="-0.81852">
        <ele>198</ele>
        <time>2020-12-30T14:25:55+01:00</time>
      </trkpt>
      <trkpt lat="46.79396" lon="-0.81904">
        <ele>195</ele>
        <time>2020-12-30T14:26:00+01:00</time>
      </trkpt>
      <trkpt lat="46.79372" lon="-0.81968">
        <ele>192</ele>
        <time>2020-12-30T14:26:05+01:00</time>
      </trkpt>
      <trkpt lat="46.79347" lon="-0.81999">
        <ele>191</ele>
        <time>2020-12-30T14:26:10+01:00</time>
      </trkpt>
      <trkpt lat="46.79313" lon="-0.82016">
        <ele>191</ele>
        <time>2020-12-30T14:26:15+01:00</time>
      </trkpt>
      <trkpt lat="46.79289" lon="-0.82067">
        <ele>191</ele>
        <time>2020-12-30T14:26:20+01:00</time>
      </trkpt>
      <trkpt lat="46.79285" lon="-0.82135">
        <ele>194</ele>
        <time>2020-12-30T14:26:25+01:00</time>
      </trkpt>
      <trkpt lat="46.79254" lon="-0.82264">
        <ele>199</ele>
        <time>2020-12-30T14:26:30+01:00</time>
      </trkpt>
      <trkpt lat="46.79219" lon="-0.82395">
        <ele>206</ele>
        <time>2020-12-30T14:26:35+01:00</time>
      </trkpt>
      <trkpt lat="46.79197" lon="-0.82453">
        <ele>209</ele>
        <time>2020-12-30T14:26:40+01:00</time>
      </trkpt>
      <trkpt lat="46.79159" lon="-0.82519">
        <ele>216</ele>
        <time>2020-12-30T14:26:45+01:00</time>
      </trkpt>
      <trkpt lat="46.79135" lon="-0.82557">
        <ele>220</ele>
        <time>2020-12-30T14:26:50+01:00</time>
      </trkpt>
      <trkpt lat="46.79044" lon="-0.82647">
        <ele>227</ele>
        <time>2020-12-30T14:26:55+01:00</time>
      </trkpt>
      <trkpt lat="46.78985" lon="-0.82707">
        <ele>232</ele>
        <time>2020-12-30T14:27:00+01:00</time>
      </trkpt>
      <trkpt lat="46.78933" lon="-0.82774">
        <ele>231</ele>
        <time>2020-12-30T14:27:05+01:00</time>
      </trkpt>
      <trkpt lat="46.78908" lon="-0.82813">
        <ele>233</ele>
        <time>2020-12-30T14:27:10+01:00</time>
      </trkpt>
      <trkpt lat="46.78885" lon="-0.82879">
        <ele>236</ele>
        <time>2020-12-30T14:27:15+01:00</time>
      </trkpt>
      <trkpt lat="46.78839" lon="-0.83038">
        <ele>245</ele>
        <time>2020-12-30T14:27:20+01:00</time>
      </trkpt>
      <trkpt lat="46.78844" lon="-0.83068">
        <ele>247</ele>
        <time>2020-12-30T14:27:25+01:00</time>
      </trkpt>
      <trkpt lat="46.78822" lon="-0.8311">
        <ele>252</ele>
        <time>2020-12-30T14:27:30+01:00</time>
      </trkpt>
      <trkpt lat="46.78791" lon="-0.83137">
        <ele>255</ele>
        <time>2020-12-30T14:27:35+01:00</time>
      </trkpt>
      <trkpt lat="46.78665" lon="-0.83188">
        <ele>262</ele>
        <time>2020-12-30T14:27:40+01:00</time>
      </trkpt>
      <trkpt lat="46.78653" lon="-0.83211">
        <ele>263</ele>
        <time>2020-12-30T14:27:45+01:00</time>
      </trkpt>
      <trkpt lat="46.7867" lon="-0.83248">
        <ele>266</ele>
        <time>2020-12-30T14:27:50+01:00</time>
      </trkpt>
      <trkpt lat="46.78691" lon="-0.8332">
        <ele>267</ele>
        <time>2020-12-30T14:27:55+01:00</time>
      </trkpt>
      <trkpt lat="46.7867" lon="-0.8325">
        <ele>266</ele>
        <time>2020-12-30T14:28:00+01:00</time>
      </trkpt>
      <trkpt lat="46.78653" lon="-0.83211">
        <ele>263</ele>
        <time>2020-12-30T14:28:05+01:00</time>
      </trkpt>
      <trkpt lat="46.78641" lon="-0.83233">
        <ele>263</ele>
        <time>2020-12-30T14:28:10+01:00</time>
      </trkpt>
      <trkpt lat="46.7863" lon="-0.83262">
        <ele>263</ele>
        <time>2020-12-30T14:28:15+01:00</time>
      </trkpt>
      <trkpt lat="46.78618" lon="-0.83321">
        <ele>261</ele>
        <time>2020-12-30T14:28:20+01:00</time>
      </trkpt>
      <trkpt lat="46.7861" lon="-0.83355">
        <ele>260</ele>
        <time>2020-12-30T14:28:25+01:00</time>
      </trkpt>
      <trkpt lat="46.78591" lon="-0.83394">
        <ele>257</ele>
        <time>2020-12-30T14:28:30+01:00</time>
      </trkpt>
      <trkpt lat="46.78564" lon="-0.83433">
        <ele>254</ele>
        <time>2020-12-30T14:28:35+01:00</time>
      </trkpt>
      <trkpt lat="46.78602" lon="-0.8351">
        <ele>254</ele>
        <time>2020-12-30T14:28:40+01:00</time>
      </trkpt>
      <trkpt lat="46.78611" lon="-0.83578">
        <ele>251</ele>
        <time>2020-12-30T14:28:45+01:00</time>
      </trkpt>
      <trkpt lat="46.78571" lon="-0.83615">
        <ele>247</ele>
        <time>2020-12-30T14:28:50+01:00</time>
      </trkpt>
      <trkpt lat="46.78542" lon="-0.83648">
        <ele>245</ele>
        <time>2020-12-30T14:28:55+01:00</time>
      </trkpt>
      <trkpt lat="46.7854" lon="-0.83674">
        <ele>244</ele>
        <time>2020-12-30T14:29:00+01:00</time>
      </trkpt>
      <trkpt lat="46.78569" lon="-0.83709">
        <ele>245</ele>
        <time>2020-12-30T14:29:05+01:00</time>
      </trkpt>
      <trkpt lat="46.78593" lon="-0.83794">
        <ele>244</ele>
        <time>2020-12-30T14:29:10+01:00</time>
      </trkpt>
      <trkpt lat="46.78599" lon="-0.83829">
        <ele>244</ele>
        <time>2020-12-30T14:29:15+01:00</time>
      </trkpt>
      <trkpt lat="46.78598" lon="-0.83858">
        <ele>244</ele>
        <time>2020-12-30T14:29:20+01:00</time>
      </trkpt>
      <trkpt lat="46.78586" lon="-0.83858">
        <ele>243</ele>
        <time>2020-12-30T14:29:25+01:00</time>
      </trkpt>
      <trkpt lat="46.7857" lon="-0.83879">
        <ele>243</ele>
        <time>2020-12-30T14:29:30+01:00</time>
      </trkpt>
      <trkpt lat="46.78539" lon="-0.83863">
        <ele>244</ele>
        <time>2020-12-30T14:29:35+01:00</time>
      </trkpt>
      <trkpt lat="46.785" lon="-0.83875">
        <ele>246</ele>
        <time>2020-12-30T14:29:40+01:00</time>
      </trkpt>
      <trkpt lat="46.78477" lon="-0.83888">
        <ele>243</ele>
        <time>2020-12-30T14:29:45+01:00</time>
      </trkpt>
      <trkpt lat="46.78465" lon="-0.83911">
        <ele>240</ele>
        <time>2020-12-30T14:29:50+01:00</time>
      </trkpt>
      <trkpt lat="46.78447" lon="-0.83919">
        <ele>237</ele>
        <time>2020-12-30T14:29:55+01:00</time>
      </trkpt>
      <trkpt lat="46.78451" lon="-0.83957">
        <ele>235</ele>
        <time>2020-12-30T14:30:00+01:00</time>
      </trkpt>
      <trkpt lat="46.78496" lon="-0.84066">
        <ele>233</ele>
        <time>2020-12-30T14:30:05+01:00</time>
      </trkpt>
      <trkpt lat="46.78525" lon="-0.84115">
        <ele>231</ele>
        <time>2020-12-30T14:30:10+01:00</time>
      </trkpt>
      <trkpt lat="46.78555" lon="-0.84076">
        <ele>236</ele>
        <time>2020-12-30T14:30:15+01:00</time>
      </trkpt>
      <trkpt lat="46.78569" lon="-0.8405">
        <ele>239</ele>
        <time>2020-12-30T14:30:20+01:00</time>
      </trkpt>
      <trkpt lat="46.78573" lon="-0.84007">
        <ele>242</ele>
        <time>2020-12-30T14:30:25+01:00</time>
      </trkpt>
      <trkpt lat="46.7861" lon="-0.84025">
        <ele>244</ele>
        <time>2020-12-30T14:30:30+01:00</time>
      </trkpt>
      <trkpt lat="46.78631" lon="-0.83965">
        <ele>246</ele>
        <time>2020-12-30T14:30:35+01:00</time>
      </trkpt>
      <trkpt lat="46.78648" lon="-0.83904">
        <ele>246</ele>
        <time>2020-12-30T14:30:40+01:00</time>
      </trkpt>
      <trkpt lat="46.78684" lon="-0.83932">
        <ele>250</ele>
        <time>2020-12-30T14:30:45+01:00</time>
      </trkpt>
      <trkpt lat="46.78692" lon="-0.83948">
        <ele>251</ele>
        <time>2020-12-30T14:30:50+01:00</time>
      </trkpt>
      <trkpt lat="46.78688" lon="-0.83968">
        <ele>251</ele>
        <time>2020-12-30T14:30:55+01:00</time>
      </trkpt>
      <trkpt lat="46.7869" lon="-0.83991">
        <ele>252</ele>
        <time>2020-12-30T14:31:00+01:00</time>
      </trkpt>
      <trkpt lat="46.78697" lon="-0.84013">
        <ele>254</ele>
        <time>2020-12-30T14:31:05+01:00</time>
      </trkpt>
      <trkpt lat="46.78718" lon="-0.84077">
        <ele>258</ele>
        <time>2020-12-30T14:31:10+01:00</time>
      </trkpt>
      <trkpt lat="46.78749" lon="-0.84093">
        <ele>265</ele>
        <time>2020-12-30T14:31:15+01:00</time>
      </trkpt>
      <trkpt lat="46.78778" lon="-0.84084">
        <ele>268</ele>
        <time>2020-12-30T14:31:20+01:00</time>
      </trkpt>
      <trkpt lat="46.788" lon="-0.84064">
        <ele>270</ele>
        <time>2020-12-30T14:31:25+01:00</time>
      </trkpt>
      <trkpt lat="46.78809" lon="-0.84051">
        <ele>271</ele>
        <time>2020-12-30T14:31:30+01:00</time>
      </trkpt>
      <trkpt lat="46.78824" lon="-0.84095">
        <ele>274</ele>
        <time>2020-12-30T14:31:35+01:00</time>
      </trkpt>
      <trkpt lat="46.78845" lon="-0.84137">
        <ele>278</ele>
        <time>2020-12-30T14:31:40+01:00</time>
      </trkpt>
      <trkpt lat="46.78886" lon="-0.84217">
        <ele>283</ele>
        <time>2020-12-30T14:31:45+01:00</time>
      </trkpt>
      <trkpt lat="46.78907" lon="-0.8418">
        <ele>283</ele>
        <time>2020-12-30T14:31:50+01:00</time>
      </trkpt>
      <trkpt lat="46.78931" lon="-0.8413">
        <ele>280</ele>
        <time>2020-12-30T14:31:55+01:00</time>
      </trkpt>
      <trkpt lat="46.78945" lon="-0.8411">
        <ele>278</ele>
        <time>2020-12-30T14:32:00+01:00</time>
      </trkpt>
      <trkpt lat="46.79001" lon="-0.84066">
        <ele>270</ele>
        <time>2020-12-30T14:32:05+01:00</time>
      </trkpt>
      <trkpt lat="46.78976" lon="-0.83995">
        <ele>269</ele>
        <time>2020-12-30T14:32:10+01:00</time>
      </trkpt>
    </trkseg>
  </trk>
</gpx>